香港国際空港 の過去48時間の天気

香港国際空港 (Hong Kong Inter-National Airport)

現在時刻: 1/26 15:10 HKT (1/26 07:10 UTC) 以下の時間は現地時間です。

過去48時間のMETAR気象情報
時間 風向 風速(m/s) 視程 気温(℃) 湿度(%) 気圧(hPa) 天気現象
26 15:00 北西 11 10km以上 14 88 1015
26 14:51 北西 11 10km以上 15 88 1015
26 14:30 北西 10 10km以上 15 88 1015
26 14:00 北西 10 10km以上 15 88 1015
26 13:30 北西 9 10km以上 16 82 1015
26 13:00 北北西 6 10km以上 18 77 1015
26 12:30 4 10km以上 17 77 1015
26 12:00 北東 4 10km以上 17 77 1016
26 11:30 北東 5 10km以上 17 77 1016
26 11:00 東北東 5 10km以上 16 82 1017
26 10:30 東北東 5 10km以上 15 88 1018 弱い雨
26 10:00 東北東 5 10km以上 15 88 1018 弱い雨
26 09:48 5 6000m 14 94 1018 弱い雨
26 09:30 北北東 3 10km以上 14 88 1018 弱いしゅう雨
26 09:00 7 10km以上 14 94 1018 弱いしゅう雨
26 08:50 7 8000m 14 94 1018 弱いしゅう雨
26 08:30 北北西 9 4600m 13 94 1019 しゅう雨 もや
26 08:00 北西 12 3700m 13 94 1017 しゅう雨 もや
26 07:30 北西 13 3700m 14 94 1016 しゅう雨
26 07:21 北西 12 4900m 14 100 1016 しゅう雨
26 07:00 北西 11 6000m 15 88 1015 弱いしゅう雨
26 06:47 北西 11 6000m 15 94 1015 弱いしゅう雨
26 06:30 西北西 9 6000m 15 94 1014 しゅう雨
26 06:00 5 6000m 16 94 1014 弱いしゅう雨
26 05:45 5 6000m 16 100 1014 弱いしゅう雨
26 05:30 3 3700m 16 94 1013 しゅう雨
26 05:00 6 8000m 16 94 1013 弱いしゅう雨
26 04:30 北東 3 10km以上 17 88 1013 弱いしゅう雨
26 04:18 東北東 5 10km以上 17 88 1013 弱いしゅう雨
26 04:00 不定 2 10km以上 17 94 1013 弱いしゅう雨
26 03:30 東北東 5 10km以上 17 88 1013
26 03:00 北北東 3 7000m 17 94 1014 弱いしゅう雨
26 02:30 3 5000m 17 100 1015 弱いしゅう雨
26 02:06 4 4800m 18 88 1015 弱いしゅう雨 もや
26 02:00 5 8000m 18 88 1015 弱いしゅう雨
26 01:52 5 7000m 18 88 1015 弱いしゅう雨
26 01:30 東北東 2 7000m 18 94 1014 弱いしゅう雨
26 01:15 北東 4 7000m 18 94 1015 弱いしゅう雨
26 01:00 東北東 4 5000m 18 94 1015 弱い雷雨
26 00:49 3 5000m 18 94 1014 弱い雷雨
26 00:30 北北東 2 5000m 18 94 1015 弱い雨
26 00:10 北東 5 4900m 18 94 1015 弱い雨 もや
26 00:00 東北東 4 5000m 18 94 1015 弱い雨
25 23:30 北東 4 5000m 19 88 1015 弱い雨
25 23:15 北北東 4 4500m 19 94 1015 弱い雨 もや
25 23:02 北西 5 4600m 19 88 1015 弱い雨 もや
25 22:30 北西 7 8000m 18 94 1015
25 22:00 北西 6 8000m 18 94 1015
25 21:30 3 10km以上 20 88 1015
25 21:00 北東 2 10km以上 20 88 1015
25 20:30 東北東 3 10km以上 20 88 1014
25 20:00 東北東 2 9000m 20 88 1015 弱い雨
25 19:30 東北東 3 9000m 20 88 1014 弱い雨
25 19:00 東北東 3 10km以上 20 88 1014 弱い雨
25 18:30 東北東 4 9000m 20 88 1014 弱い雨
25 18:00 東南東 6 4600m 20 88 1014
25 17:46 東南東 6 4500m 20 88 1014
25 17:30 5 10km以上 20 88 1014 弱い雨
25 17:00 5 10km以上 22 73 1014
25 16:30 6 10km以上 22 73 1013
25 16:00 5 10km以上 22 69 1014 弱い雨
25 15:30 5 10km以上 23 65 1014
25 15:00 5 10km以上 24 61 1014 弱い雨
25 14:30 東南東 6 10km以上 23 65 1014
25 14:00 9 10km以上 23 65 1015
25 13:30 東南東 7 10km以上 24 61 1015
25 13:00 東南東 6 10km以上 24 65 1015
25 12:30 5 10km以上 24 65 1016
25 12:00 北東 5 10km以上 24 65 1016
25 11:30 北東 4 10km以上 23 69 1017
25 11:00 3 10km以上 22 73 1017
25 10:30 北東 4 10km以上 22 73 1017
25 10:00 5 10km以上 22 73 1017
25 09:30 5 10km以上 21 78 1018
25 09:00 5 10km以上 21 78 1018
25 08:30 6 10km以上 21 78 1018
25 08:00 6 10km以上 20 83 1018
25 07:30 6 10km以上 20 83 1018
25 07:00 6 10km以上 20 83 1017
25 06:30 7 10km以上 20 83 1017
25 06:00 東南東 6 10km以上 20 83 1017
25 05:30 5 10km以上 20 88 1017
25 05:00 東南東 5 10km以上 20 88 1017
25 04:30 6 10km以上 20 88 1017
25 04:00 5 10km以上 20 88 1017
25 03:30 7 10km以上 20 88 1017
25 03:00 7 10km以上 20 88 1017
25 02:30 6 10km以上 20 88 1017
25 02:00 7 10km以上 20 88 1017
25 01:30 6 10km以上 20 88 1017
25 01:00 6 10km以上 21 83 1018
25 00:30 5 10km以上 21 83 1018
25 00:00 東南東 5 10km以上 21 83 1018
24 23:30 5 10km以上 21 88 1018
24 23:00 東北東 5 10km以上 21 88 1019
24 22:30 東北東 5 10km以上 21 88 1018
24 22:00 東北東 6 10km以上 21 88 1018
24 21:30 5 10km以上 22 83 1018
24 21:00 東北東 6 10km以上 22 83 1018
24 20:30 東北東 5 10km以上 22 83 1018
24 20:00 4 10km以上 22 83 1018
24 19:30 4 10km以上 22 83 1017
24 19:00 東南東 5 10km以上 22 83 1017
24 18:30 東南東 6 10km以上 22 83 1017
24 18:00 東南東 7 10km以上 22 83 1016
24 17:30 東南東 6 10km以上 23 78 1016
24 17:00 7 10km以上 24 74 1016
24 16:30 6 10km以上 24 74 1016
24 16:00 7 10km以上 26 65 1016
24 15:30 7 10km以上 26 61 1016
VHHH 260700Z 32021KT 9999 FEW010 SCT040 14/12 Q1015 NOSIG
VHHH 260651Z 32021KT 9999 FEW010 SCT040 15/13 Q1015 NOSIG
VHHH 260630Z 32019KT 9999 FEW010 SCT040 15/13 Q1015 NOSIG
VHHH 260600Z 32019KT 9999 FEW012 15/13 Q1015 NOSIG
VHHH 260530Z 32017KT 9999 FEW015 16/13 Q1015 NOSIG
VHHH 260500Z 34011KT 9999 FEW020 18/14 Q1015 NOSIG
VHHH 260430Z 01008KT 9999 FEW028 17/13 Q1015 NOSIG
VHHH 260400Z 05008KT 020V080 9999 FEW035 17/13 Q1016 NOSIG
VHHH 260330Z 05010KT 9999 FEW020 SCT040 17/13 Q1016 NOSIG
VHHH 260300Z 06010KT 9999 FEW020 SCT040 16/13 Q1017 NOSIG
VHHH 260230Z 06009KT 9999 -RA FEW010 SCT035 15/13 Q1018 NOSIG
VHHH 260200Z 07010KT 9999 -RA FEW010 SCT035 15/13 Q1018 NOSIG
VHHH 260148Z 10010KT 070V140 6000 -RA FEW010 SCT035 14/13 Q1018 NOSIG
VHHH 260130Z 02005KT 330V080 9999 -SHRA FEW010 SCT030 14/12 Q1018 NOSIG
VHHH 260100Z 36014KT 9999 -SHRA FEW008 SCT028 14/13 Q1018 NOSIG
VHHH 260050Z 35014KT 8000 -SHRA FEW008 SCT020 14/13 Q1018 NOSIG
VHHH 260030Z 34018KT 4600 SHRA BR FEW006 SCT015 BKN045 13/12 Q1019 NOSIG
VHHH 260000Z 32024KT 3700 SHRA BR FEW006 SCT015 BKN045 13/12 Q1017 NOSIG
VHHH 252330Z 32025KT 3700 SHRA FEW006 SCT015 BKN045 14/13 Q1016 NOSIG
VHHH 252321Z 32023KT 4900 SHRA FEW006 SCT015 BKN045 14/14 Q1016 NOSIG
VHHH 252300Z 32022KT 6000 -SHRA FEW006 SCT015 BKN045 15/13 Q1015 NOSIG
VHHH 252247Z 32021KT 6000 -SHRA FEW006 SCT015 BKN045 15/14 Q1015 RERA NOSIG
VHHH 252230Z 30017KT 6000 SHRA FEW006 SCT015 BKN045 15/14 Q1014 NOSIG
VHHH 252200Z 35010KT 6000 -SHRA FEW006 SCT015 BKN045 16/15 Q1014 NOSIG
VHHH 252145Z 35010KT 6000 -SHRA FEW006 SCT015 BKN045 16/16 Q1014 RERA NOSIG
VHHH 252130Z 35006KT 320V020 3700 SHRA FEW006 SCT015 BKN045 16/15 Q1013 NOSIG
VHHH 252100Z 35012KT 320V040 8000 -SHRA FEW006 SCT015 BKN045 16/15 Q1013 NOSIG
VHHH 252030Z 04006KT 010V070 9999 -SHRA FEW006 SCT020 BKN045 17/15 Q1013 NOSIG
VHHH 252018Z 07010KT 9999 -SHRA FEW006 SCT020 BKN045 17/15 Q1013 NOSIG
VHHH 252000Z VRB04KT 9999 -SHRA FEW006 SCT020 BKN045 17/16 Q1013 NOSIG
VHHH 251930Z 06009KT 9999 FEW006 SCT020 BKN045 17/15 Q1013 NOSIG
VHHH 251900Z 02006KT 7000 -SHRA FEW006 SCT015 BKN045 17/16 Q1014 NOSIG
VHHH 251830Z 35006KT 5000 -SHRA FEW006 SCT015 BKN045 17/17 Q1015 NOSIG
VHHH 251806Z 36008KT 4800 -SHRA BR FEW008 SCT015 BKN045 18/16 Q1015 NOSIG
VHHH 251800Z 35009KT 8000 -SHRA FEW008 SCT015 BKN045 18/16 Q1015 NOSIG
VHHH 251752Z 35010KT 7000 -SHRA FEW008 SCT015 BKN045 18/16 Q1015 NOSIG
VHHH 251730Z 07003KT 030V140 7000 -SHRA FEW008 SCT015 BKN045 18/17 Q1014 TEMPO VRB15G25KT 3500 -TSRA FEW010CB SCT020
VHHH 251715Z 04007KT 7000 -SHRA FEW008 SCT015 BKN045 18/17 Q1015 RETS TEMPO VRB15G25KT 3500 -TSRA FEW010CB SCT020
VHHH 251700Z 06008KT 5000 -TSRA FEW007 FEW010CB SCT015 BKN045 18/17 Q1015 TEMPO VRB15G25KT 3500 -TSRA FEW010CB SCT020
VHHH 251649Z 10005KT 040V130 5000 -TSRA FEW007 FEW010CB SCT015 BKN045 18/17 Q1014 TEMPO VRB15G25KT 3500 -TSRA FEW010CB SCT020
VHHH 251630Z 02003KT 320V050 5000 -RA FEW007 SCT015 BKN045 18/17 Q1015 NOSIG
VHHH 251610Z 05009KT 4900 -RA BR FEW007 SCT015 18/17 Q1015 NOSIG
VHHH 251600Z 06008KT 5000 -RA FEW007 SCT015 18/17 Q1015 NOSIG
VHHH 251530Z 05008KT 5000 -RA FEW007 SCT015 19/17 Q1015 NOSIG
VHHH 251515Z 02008KT 320V050 4500 -RA BR FEW007 SCT015 19/18 Q1015 NOSIG
VHHH 251502Z 32010KT 4600 -RA BR FEW007 SCT015 19/17 Q1015 NOSIG
VHHH 251430Z 32014KT 8000 FEW008 SCT025 18/17 Q1015 NOSIG
VHHH 251400Z 32011KT 8000 FEW008 SCT025 18/17 Q1015 NOSIG
VHHH 251330Z 36005KT 310V030 9999 FEW008 SCT025 20/18 Q1015 NOSIG
VHHH 251300Z 05004KT 9999 FEW010 SCT028 20/18 Q1015 NOSIG
VHHH 251230Z 07005KT 9999 FEW010 SCT028 20/18 Q1014 NOSIG
VHHH 251200Z 06004KT 020V080 9000 -RA FEW010 SCT025 20/18 Q1015 NOSIG
VHHH 251130Z 07006KT 9000 -RA FEW012 SCT040 20/18 Q1014 NOSIG
VHHH 251100Z 07006KT 9999 -RA FEW010 SCT040 20/18 Q1014 NOSIG
VHHH 251030Z 07007KT 040V110 9000 -RA FEW012 SCT040 20/18 Q1014 NOSIG
VHHH 251000Z 11011KT 4600 RA FEW015 SCT035 20/18 Q1014 NOSIG
VHHH 250946Z 11011KT 4500 RA FEW012 SCT035 20/18 Q1014 NOSIG
VHHH 250930Z 09009KT 9999 -RA FEW015 SCT035 20/18 Q1014 TEMPO 4000 RA
VHHH 250900Z 09010KT 070V130 9999 FEW015 SCT035 22/17 Q1014 TEMPO 4000 RA
VHHH 250830Z 09011KT 9999 FEW014 SCT035 22/17 Q1013 NOSIG
VHHH 250800Z 10010KT 070V130 9999 -RA FEW015 SCT035 22/16 Q1014 NOSIG
VHHH 250730Z 10010KT 070V140 9999 FEW018 SCT035 23/16 Q1014 NOSIG
VHHH 250700Z 10010KT 060V130 9999 -RA FEW018 SCT035 24/16 Q1014 NOSIG
VHHH 250630Z 11011KT 090V150 9999 FEW018 SCT035 23/16 Q1014 NOSIG
VHHH 250600Z 10018KT 9999 FEW018 SCT035 23/16 Q1015 NOSIG
VHHH 250530Z 11014KT 080V140 9999 FEW018 SCT035 24/16 Q1015 NOSIG
VHHH 250500Z 11012KT 080V140 9999 FEW018 SCT035 24/17 Q1015 NOSIG
VHHH 250430Z 09010KT 060V140 9999 FEW018 SCT035 24/17 Q1016 NOSIG
VHHH 250400Z 05010KT 9999 FEW018 SCT040 24/17 Q1016 NOSIG
VHHH 250330Z 05008KT 020V100 9999 FEW018 SCT040 23/17 Q1017 NOSIG
VHHH 250300Z 10006KT 070V130 9999 FEW018 SCT040 22/17 Q1017 NOSIG
VHHH 250230Z 05007KT 9999 FEW020 SCT040 22/17 Q1017 NOSIG
VHHH 250200Z 09009KT 9999 FEW015 SCT030 22/17 Q1017 NOSIG
VHHH 250130Z 08009KT 9999 FEW015 SCT030 21/17 Q1018 NOSIG
VHHH 250100Z 08010KT 9999 FEW012 SCT028 21/17 Q1018 NOSIG
VHHH 250030Z 10012KT 9999 FEW012 SCT028 21/17 Q1018 NOSIG
VHHH 250000Z 10011KT 9999 FEW012 SCT028 20/17 Q1018 NOSIG
VHHH 242330Z 09011KT 9999 FEW015 SCT025 20/17 Q1018 NOSIG
VHHH 242300Z 09012KT 9999 FEW009 SCT025 20/17 Q1017 NOSIG
VHHH 242230Z 10013KT 9999 FEW009 SCT025 20/17 Q1017 NOSIG
VHHH 242200Z 11011KT 9999 FEW009 SCT025 20/17 Q1017 NOSIG
VHHH 242130Z 10009KT 9999 FEW009 SCT025 20/18 Q1017 NOSIG
VHHH 242100Z 11010KT 090V150 9999 FEW009 SCT025 20/18 Q1017 NOSIG
VHHH 242030Z 10011KT 060V130 9999 FEW009 SCT025 20/18 Q1017 NOSIG
VHHH 242000Z 10010KT 9999 FEW008 SCT025 20/18 Q1017 NOSIG
VHHH 241930Z 09014KT 070V130 9999 FEW008 SCT025 20/18 Q1017 NOSIG
VHHH 241900Z 08013KT 9999 FEW007 SCT023 20/18 Q1017 NOSIG
VHHH 241830Z 08012KT 9999 FEW007 SCT023 20/18 Q1017 NOSIG
VHHH 241800Z 10013KT 9999 FEW007 SCT025 20/18 Q1017 NOSIG
VHHH 241730Z 10012KT 030V130 9999 FEW008 SCT025 20/18 Q1017 NOSIG
VHHH 241700Z 10012KT 9999 FEW010 SCT025 21/18 Q1018 NOSIG
VHHH 241630Z 10010KT 9999 FEW010 SCT025 21/18 Q1018 NOSIG
VHHH 241600Z 11009KT 090V170 9999 FEW012 SCT025 21/18 Q1018 NOSIG
VHHH 241530Z 08010KT 9999 FEW012 SCT025 21/19 Q1018 NOSIG
VHHH 241500Z 07009KT 9999 FEW009 SCT025 21/19 Q1019 NOSIG
VHHH 241430Z 07010KT 9999 FEW009 SCT025 21/19 Q1018 NOSIG
VHHH 241400Z 07011KT 9999 FEW009 SCT025 21/19 Q1018 NOSIG
VHHH 241330Z 08010KT 9999 FEW009 SCT025 22/19 Q1018 NOSIG
VHHH 241300Z 07011KT 9999 FEW009 SCT025 22/19 Q1018 NOSIG
VHHH 241230Z 07010KT 9999 FEW010 SCT025 22/19 Q1018 NOSIG
VHHH 241200Z 08008KT 9999 FEW010 SCT025 22/19 Q1018 NOSIG
VHHH 241130Z 10007KT 060V150 9999 FEW010 SCT025 22/19 Q1017 NOSIG
VHHH 241100Z 11010KT 080V150 9999 FEW010 SCT025 22/19 Q1017 NOSIG
VHHH 241030Z 11011KT 080V140 9999 FEW010 22/19 Q1017 NOSIG
VHHH 241000Z 11013KT 9999 FEW012 22/19 Q1016 NOSIG
VHHH 240930Z 11011KT 080V150 9999 FEW013 23/19 Q1016 NOSIG
VHHH 240900Z 10013KT 9999 FEW013 24/19 Q1016 NOSIG
VHHH 240830Z 10012KT 9999 FEW015 24/19 Q1016 NOSIG
VHHH 240800Z 08013KT 9999 FEW015 26/19 Q1016 NOSIG
VHHH 240730Z 08013KT 9999 FEW020 26/18 Q1016 NOSIG